Time;durP1;ratioP1;P1;durP2;ratioP2;P2;SDS_P1;SDS_P2;PMS_P1;PMS_P2;Temp;Humidity;BMP_temperature;BMP_pressure;BME280_temperature;BME280_humidity;BME280_pressure;Samples;Min_cycle;Max_cycle;Signal;HPM_P1;HPM_P2
2023/10/28 00:02:14;;;;;;;6.93;2.17;;;;;;;18.60;61.06;94208.94;5057864;28;20029;-76
2023/10/28 00:04:40;;;;;;;9.15;2.88;;;;;;;18.85;60.92;94243.31;5058826;28;20061;-76
2023/10/28 00:07:06;;;;;;;11.13;2.45;;;;;;;18.65;61.16;94230.16;5058690;28;20061;-76
2023/10/28 00:09:31;;;;;;;6.47;2.38;;;;;;;18.49;61.30;94212.09;5057680;28;20030;-76
2023/10/28 00:11:56;;;;;;;11.63;2.70;;;;;;;18.50;62.07;94247.78;5074415;28;20029;-77
2023/10/28 00:14:23;;;;;;;9.70;2.40;;;;;;;18.15;62.83;94236.13;5043886;28;20374;-75
2023/10/28 00:16:49;;;;;;;7.78;2.92;;;;;;;17.92;63.10;94195.69;5047098;28;20036;-75
2023/10/28 00:19:16;;;;;;;8.02;3.22;;;;;;;18.18;62.96;94233.53;5030994;28;20400;-75
2023/10/28 00:21:42;;;;;;;9.43;2.50;;;;;;;18.24;62.78;94240.22;5030953;28;20573;-75
2023/10/28 00:24:07;;;;;;;4.18;2.28;;;;;;;18.32;62.41;94246.53;5030682;28;20504;-75
2023/10/28 00:26:34;;;;;;;6.22;2.55;;;;;;;17.98;63.38;94224.59;5030871;28;20040;-75
2023/10/28 00:28:59;;;;;;;7.75;2.58;;;;;;;17.50;63.54;94141.63;5047582;28;20022;-74
2023/10/28 00:31:25;;;;;;;9.07;3.20;;;;;;;17.95;63.77;94249.41;5031740;28;20459;-75
2023/10/28 00:33:51;;;;;;;16.73;2.80;;;;;;;17.73;64.42;94234.63;5014041;28;20045;-76
2023/10/28 00:36:17;;;;;;;9.63;2.63;;;;;;;17.89;64.10;94248.09;5037732;28;20053;-76
2023/10/28 00:38:42;;;;;;;9.07;2.80;;;;;;;18.07;63.82;94245.91;5057322;28;20029;-76
2023/10/28 00:41:08;;;;;;;7.93;2.70;;;;;;;17.93;63.91;94243.59;5057394;28;20048;-76
2023/10/28 00:43:34;;;;;;;6.68;2.50;;;;;;;18.15;63.67;94257.59;5056912;28;20017;-77
2023/10/28 00:46:02;;;;;;;11.55;2.50;;;;;;;17.91;64.05;94250.44;5058118;28;20040;-76
2023/10/28 00:48:28;;;;;;;12.43;2.63;;;;;;;17.94;64.03;94247.84;5073531;28;20196;-76
2023/10/28 00:50:54;;;;;;;7.57;2.45;;;;;;;17.86;63.93;94237.25;5073690;28;20039;-76
2023/10/28 00:53:24;;;;;;;11.55;2.45;;;;;;;18.10;63.57;94263.97;5056793;28;20030;-76
2023/10/28 00:55:51;;;;;;;11.68;2.60;;;;;;;18.08;63.88;94274.28;5056845;28;20017;-77
2023/10/28 00:58:20;;;;;;;5.13;2.50;;;;;;;17.96;64.26;94268.97;5056861;28;20032;-76
2023/10/28 01:00:45;;;;;;;10.27;3.08;;;;;;;17.77;64.68;94247.38;5057760;28;20065;-76
2023/10/28 01:03:11;;;;;;;9.30;2.80;;;;;;;17.70;64.62;94229.94;5057749;28;20037;-76
2023/10/28 01:05:37;;;;;;;14.23;3.15;;;;;;;17.79;64.88;94258.53;5056602;28;20026;-76
2023/10/28 01:08:02;;;;;;;10.55;3.30;;;;;;;17.81;64.40;94257.06;5073339;28;20068;-76
2023/10/28 01:10:29;;;;;;;13.30;3.70;;;;;;;17.76;64.73;94268.03;5056585;28;20029;-77
2023/10/28 01:12:55;;;;;;;10.48;2.90;;;;;;;17.32;65.57;94235.72;5056782;28;20033;-76
2023/10/28 01:15:22;;;;;;;10.68;2.60;;;;;;;17.39;65.29;94234.38;5056671;28;20025;-76
2023/10/28 01:17:48;;;;;;;7.85;3.42;;;;;;;17.77;65.19;94276.88;5073293;28;20037;-76
2023/10/28 01:20:14;;;;;;;9.75;2.92;;;;;;;17.50;64.98;94228.19;5057343;28;20040;-76
2023/10/28 01:22:39;;;;;;;9.23;2.40;;;;;;;17.71;65.27;94277.09;5073182;28;20017;-76
2023/10/28 01:25:05;;;;;;;11.93;3.35;;;;;;;17.67;65.21;94262.03;5034607;28;20033;-75
2023/10/28 01:27:31;;;;;;;9.45;2.95;;;;;;;17.48;66.00;94257.22;5031309;28;20036;-75
2023/10/28 01:29:56;;;;;;;8.90;2.83;;;;;;;17.40;65.77;94238.59;5029740;28;20397;-75
2023/10/28 01:32:22;;;;;;;11.77;3.13;;;;;;;17.40;65.63;94234.00;5029710;28;20088;-75
2023/10/28 01:34:50;;;;;;;9.50;3.10;;;;;;;17.48;65.82;94273.31;5031231;28;20033;-75
2023/10/28 01:37:19;;;;;;;12.57;3.33;;;;;;;16.93;65.99;94183.66;5030860;28;20061;-74
2023/10/28 01:39:48;;;;;;;7.47;3.08;;;;;;;17.34;66.26;94248.78;5029513;28;20092;-74
2023/10/28 01:42:14;;;;;;;11.95;3.38;;;;;;;17.41;66.38;94267.75;5030931;28;20036;-75
2023/10/28 01:44:40;;;;;;;14.82;3.88;;;;;;;17.31;66.13;94250.25;5045989;28;20033;-75
2023/10/28 01:47:08;;;;;;;9.23;3.45;;;;;;;17.05;66.93;94241.00;5031151;28;20405;-75
2023/10/28 01:49:37;;;;;;;11.45;3.25;;;;;;;17.26;66.93;94269.22;5029705;28;20025;-75
2023/10/28 01:52:05;;;;;;;11.02;3.50;;;;;;;17.32;66.34;94243.75;5029469;28;20504;-75
2023/10/28 01:54:33;;;;;;;12.23;3.20;;;;;;;17.40;66.01;94268.84;5030817;28;20478;-75
2023/10/28 01:57:02;;;;;;;8.98;4.15;;;;;;;17.31;65.93;94260.19;5030909;28;20029;-75
2023/10/28 01:59:27;;;;;;;11.25;3.47;;;;;;;17.37;65.83;94272.22;5029654;28;20112;-75
2023/10/28 02:01:53;;;;;;;16.02;3.05;;;;;;;16.95;65.84;94202.84;5029247;28;20148;-75
2023/10/28 02:04:19;;;;;;;14.00;4.82;;;;;;;17.13;65.51;94243.56;5029257;28;20041;-75
2023/10/28 02:06:44;;;;;;;12.50;3.22;;;;;;;17.12;65.34;94231.28;5029171;28;20034;-75
2023/10/28 02:09:10;;;;;;;9.88;3.13;;;;;;;17.44;65.14;94303.81;5029360;28;20057;-75
2023/10/28 02:11:39;;;;;;;11.75;3.97;;;;;;;17.31;65.21;94281.63;5029341;28;20046;-75
2023/10/28 02:14:11;;;;;;;9.95;3.10;;;;;;;17.04;65.97;94250.94;5030693;28;20404;-75
2023/10/28 02:16:38;;;;;;;10.75;3.10;;;;;;;17.33;66.23;94306.16;5030608;28;20033;-75
2023/10/28 02:19:05;;;;;;;13.05;3.10;;;;;;;17.37;65.58;94299.03;5045876;28;20084;-74
2023/10/28 02:21:30;;;;;;;11.38;3.25;;;;;;;16.91;65.32;94233.31;5030100;28;20037;-75
2023/10/28 02:23:56;;;;;;;8.93;3.03;;;;;;;17.26;65.89;94308.63;5040123;28;20524;-75
2023/10/28 02:26:21;;;;;;;11.05;3.42;;;;;;;17.31;65.59;94309.22;5026881;28;20140;-74
2023/10/28 02:28:47;;;;;;;12.48;3.30;;;;;;;17.06;66.22;94291.56;5029293;28;20037;-75
2023/10/28 02:31:12;;;;;;;10.60;3.47;;;;;;;17.08;66.14;94292.03;5029171;28;20053;-75
2023/10/28 02:33:38;;;;;;;10.27;3.28;;;;;;;17.22;65.88;94307.75;5029274;28;20435;-75
2023/10/28 02:36:05;;;;;;;14.32;3.47;;;;;;;17.18;66.34;94310.31;5029045;28;20527;-75
2023/10/28 02:38:32;;;;;;;17.33;3.75;;;;;;;17.12;66.32;94281.41;5030376;28;20038;-75
2023/10/28 02:40:58;;;;;;;12.40;3.60;;;;;;;16.91;67.42;94311.78;5033624;28;20488;-74
2023/10/28 02:43:23;;;;;;;13.82;4.10;;;;;;;16.65;67.48;94268.44;5036707;28;20049;-75
2023/10/28 02:45:48;;;;;;;12.32;3.75;;;;;;;16.33;67.21;94202.34;5036284;28;20591;-74
2023/10/28 02:48:14;;;;;;;18.33;4.40;;;;;;;16.87;67.09;94286.75;5038251;28;20037;-74
2023/10/28 02:50:40;;;;;;;10.65;3.88;;;;;;;16.85;67.59;94299.72;5052644;28;20043;-74
2023/10/28 02:53:06;;;;;;;10.43;3.88;;;;;;;16.87;67.43;94294.00;5053227;28;20037;-74
2023/10/28 02:55:34;;;;;;;12.02;3.92;;;;;;;16.91;67.25;94289.56;5036871;28;20338;-74
2023/10/28 02:57:59;;;;;;;13.35;3.58;;;;;;;16.25;67.90;94232.69;5036332;28;20492;-74
2023/10/28 03:00:25;;;;;;;13.57;3.80;;;;;;;16.81;67.78;94314.09;5037555;28;20053;-75
2023/10/28 03:02:52;;;;;;;16.85;3.40;;;;;;;16.73;67.63;94301.59;5052121;28;20064;-74
2023/10/28 03:05:20;;;;;;;12.93;4.05;;;;;;;16.78;67.84;94304.81;5035949;28;20072;-74
2023/10/28 03:07:45;;;;;;;17.65;4.43;;;;;;;16.78;67.55;94296.03;5036680;28;20033;-75
2023/10/28 03:10:11;;;;;;;11.98;3.95;;;;;;;16.90;67.59;94304.84;5036987;28;20036;-74
2023/10/28 03:12:37;;;;;;;10.18;3.90;;;;;;;16.85;67.46;94291.69;5036875;28;20045;-74
2023/10/28 03:15:05;;;;;;;16.70;4.55;;;;;;;16.82;67.51;94297.69;5036458;28;20033;-74
2023/10/28 03:17:31;;;;;;;12.52;3.70;;;;;;;16.64;67.46;94272.22;5035434;28;20176;-74
2023/10/28 03:19:57;;;;;;;11.13;3.75;;;;;;;16.85;67.75;94313.09;5037299;28;20112;-74
2023/10/28 03:22:22;;;;;;;9.77;4.80;;;;;;;16.51;68.42;94302.75;5035229;28;20124;-74
2023/10/28 03:24:48;;;;;;;9.90;3.90;;;;;;;16.65;68.71;94321.97;5037953;28;20025;-74
2023/10/28 03:27:13;;;;;;;10.77;3.67;;;;;;;16.54;68.50;94312.78;5037134;28;20473;-74
2023/10/28 03:29:40;;;;;;;20.60;4.65;;;;;;;16.33;69.11;94315.50;5036291;28;20021;-74
2023/10/28 03:32:07;;;;;;;10.98;3.25;;;;;;;16.38;69.61;94333.25;5067367;22;20114;-80
2023/10/28 03:34:32;;;;;;;17.08;4.22;;;;;;;16.47;69.31;94336.66;5080496;28;20487;-80
2023/10/28 03:36:58;;;;;;;13.38;3.60;;;;;;;16.47;69.12;94333.97;5070334;28;20028;-81
2023/10/28 03:39:23;;;;;;;8.48;3.10;;;;;;;16.47;69.36;94328.63;5070697;28;20072;-81
2023/10/28 03:41:49;;;;;;;5.55;2.95;;;;;;;16.44;69.35;94319.34;5056582;28;20470;-81
2023/10/28 03:44:15;;;;;;;13.80;3.75;;;;;;;16.43;69.25;94322.34;5057465;28;20585;-81
2023/10/28 03:46:40;;;;;;;13.52;3.92;;;;;;;16.15;70.14;94317.59;5056777;28;20526;-81
2023/10/28 03:49:05;;;;;;;16.88;3.78;;;;;;;16.36;69.78;94338.16;5056732;28;20064;-81
2023/10/28 03:51:31;;;;;;;9.35;3.78;;;;;;;16.28;69.81;94322.97;5073947;28;20119;-81
2023/10/28 03:53:57;;;;;;;17.23;3.17;;;;;;;16.31;69.83;94328.47;5074560;28;20036;-81
2023/10/28 03:56:22;;;;;;;7.28;3.92;;;;;;;16.20;69.59;94309.34;5057171;28;20112;-81
2023/10/28 03:58:48;;;;;;;12.02;3.85;;;;;;;16.37;69.44;94327.13;5075009;28;20120;-81
2023/10/28 04:01:15;;;;;;;9.65;3.78;;;;;;;16.10;69.73;94303.59;5056783;28;20123;-81
2023/10/28 04:03:41;;;;;;;11.98;4.07;;;;;;;16.39;69.94;94357.03;5075345;28;20060;-82
2023/10/28 04:06:06;;;;;;;15.88;4.22;;;;;;;16.38;69.67;94349.31;5056591;28;20036;-81
2023/10/28 04:08:32;;;;;;;8.77;4.05;;;;;;;16.41;69.47;94346.75;5057829;28;20486;-81
2023/10/28 04:10:57;;;;;;;8.50;3.55;;;;;;;16.38;69.61;94339.41;5058925;28;20108;-81
2023/10/28 04:13:22;;;;;;;12.65;3.53;;;;;;;16.47;69.53;94366.09;5077718;28;20092;-81
2023/10/28 04:15:48;;;;;;;12.90;3.50;;;;;;;16.30;69.82;94348.28;5059971;28;20052;-81
2023/10/28 04:18:13;;;;;;;17.42;3.95;;;;;;;16.23;70.04;94344.59;5060718;28;20032;-80
2023/10/28 04:20:39;;;;;;;11.35;3.75;;;;;;;16.29;70.55;94368.13;5078620;28;20024;-81
2023/10/28 04:23:05;;;;;;;10.88;3.58;;;;;;;16.27;70.16;94356.19;5058312;28;20032;-81
2023/10/28 04:25:31;;;;;;;10.75;3.63;;;;;;;16.14;70.03;94340.09;5078429;28;20036;-78
2023/10/28 04:27:56;;;;;;;12.38;4.28;;;;;;;16.20;70.63;94362.84;5080863;28;20039;-79
2023/10/28 04:30:22;;;;;;;11.68;4.35;;;;;;;16.01;70.98;94367.91;5063583;28;20024;-79
2023/10/28 04:32:48;;;;;;;15.52;3.97;;;;;;;16.07;70.99;94361.22;5064797;28;20045;-79
2023/10/28 04:35:15;;;;;;;13.05;3.50;;;;;;;16.13;70.64;94388.56;5083418;28;20036;-79
2023/10/28 04:37:40;;;;;;;17.13;4.43;;;;;;;16.00;71.63;94376.25;5061629;28;20028;-79
2023/10/28 04:40:06;;;;;;;14.63;4.13;;;;;;;15.79;71.40;94330.78;5079493;28;20036;-80
2023/10/28 04:42:32;;;;;;;14.05;3.83;;;;;;;16.00;71.28;94374.34;5060853;28;20056;-79
2023/10/28 04:44:57;;;;;;;9.68;3.90;;;;;;;15.71;71.87;94356.47;5060399;28;20374;-78
2023/10/28 04:47:24;;;;;;;8.60;4.03;;;;;;;15.72;71.94;94363.38;5078440;28;20029;-80
2023/10/28 04:49:50;;;;;;;10.80;4.05;;;;;;;15.90;72.01;94385.44;5081867;28;20059;-80
2023/10/28 04:52:15;;;;;;;12.05;5.03;;;;;;;15.75;71.90;94368.06;5080423;28;20025;-80
2023/10/28 04:54:41;;;;;;;19.38;5.32;;;;;;;15.82;72.36;94384.38;5105897;22;20456;-75
2023/10/28 04:57:06;;;;;;;10.73;4.07;;;;;;;15.75;72.38;94381.44;5095297;28;20134;-74
2023/10/28 04:59:32;;;;;;;15.80;4.43;;;;;;;15.35;72.29;94343.59;5095372;28;20024;-75
2023/10/28 05:01:57;;;;;;;13.50;4.63;;;;;;;15.29;72.10;94326.19;5094859;28;20094;-75
2023/10/28 05:04:27;;;;;;;10.68;4.18;;;;;;;15.68;71.82;94377.72;5094315;28;20059;-74
2023/10/28 05:06:53;;;;;;;11.02;4.80;;;;;;;15.80;72.15;94401.84;5076670;28;20028;-76
2023/10/28 05:09:20;;;;;;;15.38;4.93;;;;;;;15.65;72.35;94389.03;5094602;28;20052;-74
2023/10/28 05:11:46;;;;;;;17.83;4.10;;;;;;;15.43;72.49;94377.50;5094305;28;20067;-74
2023/10/28 05:14:12;;;;;;;14.60;4.78;;;;;;;15.66;72.50;94425.34;5094193;28;20110;-75
2023/10/28 05:16:37;;;;;;;19.65;6.43;;;;;;;15.10;73.14;94373.91;5093790;28;20087;-75
2023/10/28 05:19:03;;;;;;;17.40;5.20;;;;;;;15.30;73.80;94407.91;5094461;28;20024;-74
2023/10/28 05:21:29;;;;;;;13.32;5.38;;;;;;;15.48;73.57;94405.94;5075871;28;20038;-74
2023/10/28 05:23:54;;;;;;;14.80;5.20;;;;;;;15.61;73.22;94423.66;5075778;28;20043;-74
2023/10/28 05:26:20;;;;;;;20.85;6.45;;;;;;;15.68;73.14;94441.88;5094164;28;20047;-74
2023/10/28 05:28:46;;;;;;;16.75;5.70;;;;;;;15.65;73.47;94429.13;5076012;28;20031;-75
2023/10/28 05:31:12;;;;;;;23.73;6.63;;;;;;;15.68;73.09;94415.91;5076705;28;20028;-75
2023/10/28 05:33:39;;;;;;;18.75;5.55;;;;;;;15.70;72.66;94428.97;5094452;28;20076;-74
2023/10/28 05:36:05;;;;;;;13.75;6.85;;;;;;;15.77;72.45;94437.25;5076462;28;20042;-74
2023/10/28 05:38:31;;;;;;;16.13;6.32;;;;;;;15.51;72.30;94405.28;5094027;28;20036;-75
2023/10/28 05:40:57;;;;;;;12.10;5.93;;;;;;;15.50;72.33;94386.91;5076314;28;20378;-74
2023/10/28 05:43:22;;;;;;;17.98;5.43;;;;;;;15.78;72.50;94438.84;5076230;28;20058;-74
2023/10/28 05:45:48;;;;;;;26.70;6.20;;;;;;;16.00;72.23;94459.94;5094670;28;20043;-74
2023/10/28 05:48:14;;;;;;;20.75;6.53;;;;;;;15.89;72.35;94466.75;5075737;28;20089;-74
2023/10/28 05:50:39;;;;;;;26.08;7.03;;;;;;;15.73;72.87;94455.81;5075655;28;20042;-74
2023/10/28 05:53:05;;;;;;;20.20;6.25;;;;;;;15.99;72.34;94470.94;5075721;28;20051;-75
2023/10/28 05:55:30;;;;;;;27.23;7.05;;;;;;;16.01;71.96;94461.50;5093503;28;20031;-74
2023/10/28 05:57:56;;;;;;;28.10;6.70;;;;;;;16.08;72.00;94477.03;5094302;28;20063;-74
2023/10/28 06:00:21;;;;;;;29.35;7.38;;;;;;;15.91;72.06;94461.88;5075312;28;20153;-74
2023/10/28 06:02:47;;;;;;;26.58;8.55;;;;;;;16.16;71.61;94484.22;5093816;28;20085;-74
2023/10/28 06:05:14;;;;;;;23.17;8.45;;;;;;;16.15;71.53;94474.63;5090424;28;20040;-76
2023/10/28 06:07:40;;;;;;;28.05;9.85;;;;;;;16.27;71.54;94495.31;5073036;28;20063;-75
2023/10/28 06:10:07;;;;;;;23.98;7.50;;;;;;;16.15;71.42;94496.81;5072083;28;20093;-75
2023/10/28 06:12:35;;;;;;;26.33;7.78;;;;;;;16.16;71.27;94500.28;5072771;28;20024;-75
2023/10/28 06:15:02;;;;;;;22.52;8.30;;;;;;;15.96;71.09;94458.22;5071974;28;20093;-75
2023/10/28 06:17:27;;;;;;;29.90;8.25;;;;;;;16.13;70.57;94464.25;5072311;28;20041;-75
2023/10/28 06:19:53;;;;;;;27.80;8.13;;;;;;;16.43;70.42;94501.66;5090116;28;20032;-75
2023/10/28 06:22:18;;;;;;;28.20;8.07;;;;;;;16.41;70.34;94501.19;5071806;28;20035;-75
2023/10/28 06:24:44;;;;;;;25.77;9.68;;;;;;;16.26;70.58;94473.09;5071822;28;20093;-76
2023/10/28 06:27:10;;;;;;;22.38;9.30;;;;;;;16.26;70.45;94457.06;5090613;28;20052;-75
2023/10/28 06:29:35;;;;;;;26.67;8.75;;;;;;;16.62;70.35;94501.22;5072639;28;20028;-75
2023/10/28 06:32:01;;;;;;;21.60;7.97;;;;;;;16.55;70.39;94501.72;5071899;28;20032;-75
2023/10/28 06:34:29;;;;;;;30.48;8.18;;;;;;;16.67;71.13;94538.50;5072124;28;20051;-75
2023/10/28 06:36:55;;;;;;;34.20;7.55;;;;;;;16.41;71.36;94495.81;5071790;28;20414;-75
2023/10/28 06:39:21;;;;;;;23.73;8.55;;;;;;;16.53;71.20;94503.94;5090320;28;20098;-76
2023/10/28 06:41:47;;;;;;;22.77;8.88;;;;;;;16.86;70.58;94533.47;5090042;28;20028;-76
2023/10/28 06:44:12;;;;;;;18.92;8.02;;;;;;;16.98;70.17;94541.56;5071684;28;20101;-76
2023/10/28 06:46:38;;;;;;;24.10;8.57;;;;;;;17.05;69.25;94533.78;5071760;28;20472;-75
2023/10/28 06:49:03;;;;;;;27.98;7.90;;;;;;;16.71;68.86;94467.13;5071810;28;20524;-76
2023/10/28 06:51:29;;;;;;;21.15;8.15;;;;;;;17.31;68.51;94554.97;5072272;28;20101;-76
2023/10/28 06:53:54;;;;;;;17.95;8.80;;;;;;;17.27;68.28;94543.34;5071763;28;20070;-75
2023/10/28 06:56:20;;;;;;;42.83;15.50;;;;;;;17.28;67.82;94545.69;5090262;28;20044;-76
2023/10/28 06:58:45;;;;;;;23.80;9.88;;;;;;;17.49;67.23;94575.09;5073343;28;20080;-74
2023/10/28 07:01:11;;;;;;;26.38;9.73;;;;;;;17.56;66.96;94567.31;5075983;28;20028;-75
2023/10/28 07:03:40;;;;;;;20.08;8.73;;;;;;;17.59;66.53;94568.56;5092896;28;20043;-74
2023/10/28 07:06:09;;;;;;;15.32;6.53;;;;;;;17.60;66.12;94557.50;5071577;28;20028;-74
2023/10/28 07:08:36;;;;;;;16.08;5.93;;;;;;;17.55;65.85;94538.94;5089823;28;20039;-74
2023/10/28 07:11:02;;;;;;;20.60;6.30;;;;;;;17.70;65.75;94567.81;5090588;28;20028;-74
2023/10/28 07:13:27;;;;;;;18.85;5.15;;;;;;;17.77;65.43;94582.59;5072076;28;20474;-74
2023/10/28 07:16:01;;;;;;;10.48;4.32;;;;;;;17.79;64.82;94594.53;5071910;28;20408;-74
2023/10/28 07:18:27;;;;;;;15.70;4.97;;;;;;;17.76;64.81;94571.09;5071756;28;20032;-74
2023/10/28 07:20:52;;;;;;;11.90;3.97;;;;;;;17.83;64.72;94592.78;5071789;28;20047;-74
2023/10/28 07:23:20;;;;;;;16.08;4.57;;;;;;;17.86;64.54;94594.78;5072059;28;20074;-74
2023/10/28 07:25:45;;;;;;;12.40;5.60;;;;;;;17.97;64.06;94609.34;5073478;28;20035;-74
2023/10/28 07:28:13;;;;;;;15.93;5.60;;;;;;;17.87;64.26;94592.88;5076721;28;20117;-74
2023/10/28 07:30:50;;;;;;;13.02;6.35;;;;;;;17.98;64.09;94596.69;5093954;28;20032;-74
2023/10/28 07:33:16;;;;;;;23.33;6.80;;;;;;;17.95;64.25;94592.78;5075188;28;20055;-75
2023/10/28 07:35:45;;;;;;;15.75;6.13;;;;;;;17.93;64.27;94581.59;5075330;28;20028;-74
2023/10/28 07:38:12;;;;;;;12.82;4.68;;;;;;;17.99;63.98;94577.59;5093593;28;20264;-74
2023/10/28 07:40:39;;;;;;;10.35;4.78;;;;;;;17.91;63.55;94578.47;5074826;28;20059;-73
2023/10/28 07:43:05;;;;;;;19.30;4.53;;;;;;;17.91;63.64;94572.34;5075112;28;20032;-74
2023/10/28 07:45:31;;;;;;;12.23;4.82;;;;;;;17.91;63.24;94565.06;5093341;28;20494;-74
2023/10/28 07:47:56;;;;;;;13.63;5.18;;;;;;;18.05;63.38;94594.25;5074570;28;20432;-74
2023/10/28 07:50:22;;;;;;;11.63;5.18;;;;;;;18.05;63.09;94591.56;5075628;28;20122;-74
2023/10/28 07:52:47;;;;;;;15.20;4.82;;;;;;;17.97;63.16;94577.13;5076620;28;20096;-78
2023/10/28 07:55:13;;;;;;;12.38;5.43;;;;;;;17.89;63.04;94548.50;5090903;28;20028;-78
2023/10/28 07:57:38;;;;;;;11.98;4.63;;;;;;;18.36;62.85;94607.13;5091250;28;20027;-78
2023/10/28 08:00:05;;;;;;;14.95;5.38;;;;;;;18.22;62.69;94580.63;5091150;28;20035;-78
2023/10/28 08:02:31;;;;;;;11.75;5.50;;;;;;;18.32;62.60;94585.53;5091510;28;20062;-78
2023/10/28 08:04:57;;;;;;;18.73;4.80;;;;;;;18.55;62.41;94611.91;5109417;28;20043;-78
2023/10/28 08:07:24;;;;;;;16.58;5.28;;;;;;;18.55;62.70;94614.59;5108372;28;20038;-77
2023/10/28 08:09:50;;;;;;;13.02;5.15;;;;;;;18.59;62.52;94612.84;5090235;28;20092;-77
2023/10/28 08:12:16;;;;;;;10.32;4.15;;;;;;;18.09;62.67;94538.78;5108651;28;20055;-78
2023/10/28 08:14:44;;;;;;;10.35;4.38;;;;;;;18.26;62.59;94559.25;5078133;28;20086;-74
2023/10/28 08:17:10;;;;;;;19.27;5.22;;;;;;;18.46;62.32;94588.66;5074916;28;20398;-74
2023/10/28 08:19:36;;;;;;;11.57;4.15;;;;;;;18.75;62.10;94609.13;5092505;28;20024;-74
2023/10/28 08:22:01;;;;;;;15.23;4.50;;;;;;;18.68;62.26;94589.34;5092725;28;20035;-74
2023/10/28 08:24:27;;;;;;;17.17;4.38;;;;;;;18.73;62.10;94591.78;5074444;28;20032;-74
2023/10/28 08:26:52;;;;;;;15.52;4.70;;;;;;;18.91;61.75;94606.53;5092278;28;20095;-74
2023/10/28 08:29:18;;;;;;;14.13;4.10;;;;;;;18.89;61.74;94609.56;5092371;28;20043;-74
2023/10/28 08:31:43;;;;;;;16.30;4.63;;;;;;;19.05;61.75;94615.00;5092183;28;20028;-74
2023/10/28 08:34:09;;;;;;;15.48;6.00;;;;;;;19.08;61.56;94606.25;5074282;28;20047;-74
2023/10/28 08:36:34;;;;;;;10.68;5.38;;;;;;;18.86;61.26;94577.97;5092722;28;20174;-74
2023/10/28 08:39:00;;;;;;;16.75;4.35;;;;;;;18.92;60.92;94601.94;5092467;28;20173;-74
2023/10/28 08:41:25;;;;;;;14.75;4.25;;;;;;;19.22;60.41;94622.03;5074655;28;20032;-74
2023/10/28 08:43:53;;;;;;;9.85;3.75;;;;;;;18.98;60.09;94566.44;5092810;28;20036;-74
2023/10/28 08:46:18;;;;;;;11.63;4.07;;;;;;;19.41;59.86;94629.44;5092195;28;20031;-74
2023/10/28 08:48:44;;;;;;;11.05;3.95;;;;;;;19.39;59.94;94639.75;5073975;28;20639;-74
2023/10/28 08:51:12;;;;;;;10.90;4.43;;;;;;;19.36;60.04;94613.56;5074668;28;20032;-74
2023/10/28 08:53:40;;;;;;;10.30;3.30;;;;;;;19.61;59.50;94631.97;5074803;28;20367;-74
2023/10/28 08:56:06;;;;;;;13.05;4.40;;;;;;;19.55;59.23;94594.91;5093595;28;20120;-74
2023/10/28 08:58:32;;;;;;;14.35;4.45;;;;;;;19.56;58.88;94597.25;5093256;28;20472;-74
2023/10/28 09:01:01;;;;;;;12.30;4.13;;;;;;;19.63;58.81;94596.66;5092979;28;20039;-74
2023/10/28 09:03:28;;;;;;;13.75;4.10;;;;;;;19.75;58.66;94606.59;5093185;28;20024;-74
2023/10/28 09:05:54;;;;;;;15.07;4.78;;;;;;;19.92;58.46;94628.56;5093508;28;20054;-74
2023/10/28 09:08:25;;;;;;;12.98;3.95;;;;;;;20.02;57.99;94616.50;5075286;28;20024;-76
2023/10/28 09:10:51;;;;;;;11.93;5.63;;;;;;;19.99;57.62;94615.28;5075358;28;20032;-76
2023/10/28 09:13:16;;;;;;;21.35;4.40;;;;;;;20.18;57.31;94628.06;5075157;28;20106;-76
2023/10/28 09:15:42;;;;;;;11.68;3.30;;;;;;;20.15;57.36;94614.50;5093774;28;20028;-76
2023/10/28 09:18:08;;;;;;;15.30;3.38;;;;;;;19.78;57.34;94566.31;5092929;28;20043;-76
2023/10/28 09:20:37;;;;;;;16.73;3.42;;;;;;;20.32;56.92;94631.09;5093275;28;20040;-76
2023/10/28 09:23:03;;;;;;;20.75;4.32;;;;;;;20.19;55.87;94600.03;5074670;28;20036;-74
2023/10/28 09:25:30;;;;;;;18.80;3.28;;;;;;;20.43;56.10;94623.31;5074230;28;20429;-74
2023/10/28 09:27:57;;;;;;;17.05;3.47;;;;;;;20.47;55.85;94609.91;5093076;28;20110;-74
2023/10/28 09:30:22;;;;;;;17.70;4.40;;;;;;;20.56;55.80;94618.59;5076430;28;20515;-74
2023/10/28 09:32:48;;;;;;;10.45;3.42;;;;;;;20.60;55.61;94625.63;5088331;28;20110;-74
2023/10/28 09:35:13;;;;;;;16.02;4.80;;;;;;;20.61;54.84;94621.81;5077212;28;20020;-74
2023/10/28 09:37:40;;;;;;;12.43;3.22;;;;;;;20.64;54.82;94610.34;5095167;28;20370;-74
2023/10/28 09:40:08;;;;;;;12.43;3.33;;;;;;;20.67;54.36;94615.00;5094999;28;20111;-74
2023/10/28 09:42:37;;;;;;;6.78;2.72;;;;;;;20.51;47.24;94597.34;5076217;28;20073;-75
2023/10/28 09:45:09;;;;;;;18.38;2.13;;;;;;;20.79;46.19;94614.13;5094476;28;20039;-74
2023/10/28 09:47:57;;;;;;;11.10;2.92;;;;;;;20.84;47.05;94621.16;5076353;28;20130;-74
2023/10/28 09:50:25;;;;;;;4.53;2.03;;;;;;;20.88;45.27;94603.16;5073707;28;20053;-75
2023/10/28 09:52:56;;;;;;;6.28;2.08;;;;;;;21.49;44.26;94609.47;5092257;28;20028;-74
2023/10/28 09:55:36;;;;;;;8.23;1.67;;;;;;;22.24;43.40;94617.03;5093317;28;20036;-74
2023/10/28 09:58:11;;;;;;;8.60;1.73;;;;;;;22.74;41.03;94585.41;5073941;28;20082;-74
2023/10/28 10:00:37;;;;;;;6.35;1.23;;;;;;;23.38;38.89;94600.56;5073848;28;20126;-74
2023/10/28 10:03:29;;;;;;;7.75;1.67;;;;;;;24.09;37.32;94603.28;5091442;28;20111;-74
2023/10/28 10:05:55;;;;;;;6.50;1.63;;;;;;;24.54;36.25;94586.66;5089604;28;20040;-75
2023/10/28 10:08:22;;;;;;;8.55;1.60;;;;;;;24.96;36.09;94597.03;5091079;28;20035;-75
2023/10/28 10:10:49;;;;;;;7.07;1.60;;;;;;;25.14;35.52;94580.09;5091022;28;20040;-74
2023/10/28 10:13:16;;;;;;;4.55;1.42;;;;;;;25.61;34.67;94574.50;5072596;28;20109;-75
2023/10/28 10:15:54;;;;;;;7.20;1.58;;;;;;;26.18;33.96;94571.88;5090511;28;20032;-74
2023/10/28 10:18:46;;;;;;;7.57;1.42;;;;;;;25.44;33.01;94571.69;5090724;28;20043;-75
2023/10/28 10:21:15;;;;;;;8.95;1.40;;;;;;;24.89;33.45;94596.19;5088730;28;20341;-74
2023/10/28 10:23:45;;;;;;;4.55;1.55;;;;;;;24.41;32.92;94588.09;5072887;28;20032;-74
2023/10/28 10:26:29;;;;;;;10.57;3.78;;;;;;;24.25;33.11;94557.78;5072154;28;20044;-74
2023/10/28 10:28:58;;;;;;;5.20;2.25;;;;;;;24.32;33.94;94587.66;5089755;28;20478;-75
2023/10/28 10:31:31;;;;;;;5.57;1.52;;;;;;;24.11;34.28;94554.91;5072494;28;20493;-75
2023/10/28 10:34:07;;;;;;;4.50;1.25;;;;;;;24.04;33.68;94557.56;5089627;28;20058;-74
2023/10/28 10:36:38;;;;;;;9.23;1.50;;;;;;;24.06;33.79;94561.47;5072756;28;20065;-74
2023/10/28 10:39:18;;;;;;;6.05;1.42;;;;;;;23.63;33.90;94535.91;5072627;28;20468;-74
2023/10/28 10:41:54;;;;;;;14.15;3.35;;;;;;;24.01;33.20;94533.94;5071976;28;20051;-74
2023/10/28 10:44:40;;;;;;;8.00;2.03;;;;;;;23.80;33.93;94556.94;5070690;28;20131;-74
2023/10/28 10:47:13;;;;;;;7.82;1.95;;;;;;;23.98;34.38;94580.72;5072574;28;20048;-74
2023/10/28 10:49:39;;;;;;;6.90;1.55;;;;;;;24.01;34.61;94580.78;5072547;28;20422;-74
2023/10/28 10:52:05;;;;;;;4.95;1.15;;;;;;;23.99;32.41;94561.41;5072395;28;20039;-73
2023/10/28 10:54:34;;;;;;;4.63;1.48;;;;;;;23.94;33.74;94542.78;5057909;28;20066;-74
2023/10/28 10:57:00;;;;;;;6.82;1.30;;;;;;;23.90;34.47;94541.19;5051610;28;20037;-74
2023/10/28 10:59:33;;;;;;;7.38;1.50;;;;;;;24.11;33.92;94557.63;5052014;28;20494;-74
2023/10/28 11:02:00;;;;;;;5.10;1.33;;;;;;;24.10;34.13;94548.75;5054865;28;20106;-74
2023/10/28 11:04:26;;;;;;;8.38;1.73;;;;;;;23.93;34.14;94554.00;5056181;28;20039;-74
2023/10/28 11:06:52;;;;;;;5.13;1.50;;;;;;;24.13;34.26;94566.94;5074411;28;20090;-74
2023/10/28 11:09:18;;;;;;;4.65;1.42;;;;;;;24.16;35.21;94566.19;5055704;28;20029;-74
2023/10/28 11:11:43;;;;;;;7.97;1.50;;;;;;;24.12;35.01;94524.75;5073894;28;20059;-74
2023/10/28 11:14:09;;;;;;;8.45;1.52;;;;;;;24.21;34.74;94546.13;5074230;28;20036;-73
2023/10/28 11:16:35;;;;;;;9.85;2.15;;;;;;;24.15;34.87;94539.47;5055873;28;20067;-74
2023/10/28 11:19:05;;;;;;;4.22;1.13;;;;;;;24.17;33.95;94540.69;5073931;28;20060;-74
2023/10/28 11:21:33;;;;;;;12.55;2.05;;;;;;;24.08;34.83;94539.44;5074117;28;20064;-74
2023/10/28 11:23:59;;;;;;;7.20;1.88;;;;;;;24.23;34.63;94571.72;5073508;28;20040;-74
2023/10/28 11:26:27;;;;;;;6.68;1.10;;;;;;;23.87;34.72;94550.06;5055721;28;20123;-74